Data for 03/24/2017

Time Sea-Level Adjusted Pressure Absolute Pressure Temperature Relative Humidity Dew Point   
(mb) (inHg) (mb) (inHg) (C) (F) (%) (C) (F)
00:05 1019 30.09 848 25.04 1.2 34.1 58 -6.3 20.7
00:10 1019 30.09 848 25.04 0.9 33.7 58 -6.4 20.5
00:15 1018 30.06 848 25.04 0.9 33.6 58 -6.6 20.2
00:20 1019 30.09 848 25.04 0.8 33.5 58 -6.4 20.4
00:25 1019 30.09 848 25.04 0.8 33.4 58 -6.7 20
00:30 1019 30.09 848 25.04 0.7 33.3 60 -6.3 20.7
00:35 1018 30.06 848 25.04 0.3 32.5 61 -6.4 20.6
00:40 1018 30.06 848 25.04 0.2 32.4 60 -6.6 20.2
00:45 1018 30.06 848 25.04 0.2 32.4 60 -6.6 20.1
00:50 1018 30.06 848 25.04 0.3 32.6 59 -6.7 19.9
00:55 1019 30.09 848 25.04 0.5 32.9 59 -6.6 20.1
01:00 1019 30.09 848 25.04 0.5 32.8 59 -6.6 20.2
01:05 1019 30.09 848 25.04 0.3 32.6 60 -6.6 20.1
01:10 1018 30.06 848 25.04 0.3 32.6 59 -6.7 19.9
01:15 1018 30.06 848 25.04 0.5 33 58 -6.7 19.9
01:20 1019 30.09 848 25.04 0.5 33 59 -6.6 20.1
01:25 1019 30.09 848 25.04 0.4 32.7 59 -6.6 20.1
01:30 1019 30.09 848 25.04 0.2 32.4 60 -6.6 20.2
01:35 1019 30.09 848 25.04 0.1 32.1 62 -6.4 20.4
01:40 1019 30.09 848 25.04 -0 31.9 61 -6.7 19.9
01:45 1019 30.09 848 25.04 0 32 60 -6.7 19.9
01:50 1019 30.09 848 25.04 0 32.1 61 -6.6 20
01:55 1019 30.09 848 25.04 -0 32 61 -6.6 20.1
02:00 1019 30.09 848 25.04 -0.1 31.9 61 -6.7 20
02:05 1019 30.09 848 25.04 -0 32 61 -6.7 19.9
02:10 1019 30.09 848 25.04 -0 31.9 61 -6.7 20
02:15 1019 30.09 848 25.04 0.1 32.3 59 -7 19.4
02:20 1019 30.09 848 25.04 0.5 32.9 58 -6.9 19.6
02:25 1019 30.09 848 25.04 0.5 33 58 -6.8 19.8
02:30 1019 30.09 848 25.04 0.5 32.9 58 -6.8 19.7
02:35 1019 30.09 848 25.04 0.4 32.8 60 -6.4 20.5
02:40 1019 30.09 848 25.04 0.3 32.5 58 -7 19.4
02:45 1019 30.09 848 25.04 0.6 33.1 56 -7.1 19.3
02:50 1019 30.09 848 25.04 1 33.9 54 -7.3 18.8
02:55 1019 30.09 848 25.04 1.3 34.3 54 -7 19.4
03:00 1019 30.09 848 25.04 1.3 34.3 55 -6.9 19.7
03:05 1019 30.09 848 25.04 0.9 33.6 57 -6.8 19.8
03:10 1019 30.09 848 25.04 0.8 33.4 56 -7 19.4
03:15 1019 30.09 848 25.04 0.6 33 58 -6.8 19.8
03:20 1019 30.09 848 25.04 -0.1 31.8 61 -6.8 19.8
03:25 1019 30.09 848 25.04 -0.2 31.7 61 -6.8 19.7
03:30 1019 30.09 848 25.04 -0.3 31.4 60 -7.2 19.1
03:35 1019 30.09 848 25.04 0.1 32.1 59 -7 19.3
03:40 1019 30.09 848 25.04 -0.1 31.8 60 -6.9 19.5
03:45 1019 30.09 848 25.04 -0.4 31.3 61 -6.9 19.5
03:50 1019 30.09 848 25.04 -0.7 30.7 63 -7 19.4
03:55 1019 30.09 848 25.04 -0.9 30.4 63 -7 19.3
04:00 1019 30.09 848 25.04 -0.9 30.3 63 -7.1 19.3
04:05 1019 30.09 848 25.04 -0.9 30.4 63 -7.1 19.3
04:10 1019 30.09 848 25.04 -0.9 30.3 64 -7 19.5
04:15 1019 30.09 848 25.04 -1.3 29.6 66 -6.9 19.5
04:20 1019 30.09 848 25.04 -1.4 29.5 65 -7.2 19
04:25 1019 30.09 848 25.04 -1.2 29.8 65 -7.1 19.3
04:30 1019 30.09 848 25.04 -1.3 29.7 64 -7.2 19
04:35 1019 30.09 848 25.04 -1 30.3 63 -7.2 19
04:40 1019 30.09 848 25.04 -0.9 30.5 62 -7.3 18.9
04:45 1019 30.09 848 25.04 -0.9 30.4 63 -7 19.3
04:50 1019 30.09 848 25.04 -1.3 29.6 64 -7.2 19.1
04:55 1019 30.09 848 25.04 -1.4 29.5 64 -7.3 18.9
05:00 1019 30.09 848 25.04 -1.2 29.9 63 -7.4 18.7
05:05 1019 30.09 848 25.04 -1 30.2 62 -7.3 18.8
05:10 1019 30.09 848 25.04 -0.8 30.5 61 -7.4 18.7
05:15 1019 30.09 848 25.04 -0.9 30.5 62 -7.2 19
05:20 1019 30.09 848 25.04 -1 30.2 63 -7.2 19
05:25 1019 30.09 848 25.04 -1.2 29.9 63 -7.3 18.9
05:30 1019 30.09 848 25.04 -1.1 30.1 62 -7.4 18.7
05:35 1019 30.09 848 25.04 -1.1 30 62 -7.4 18.7
05:40 1019 30.09 848 25.04 -1.2 29.9 64 -7.2 19
05:45 1019 30.09 848 25.04 -1.4 29.5 64 -7.3 18.8
05:50 1019 30.09 848 25.04 -1.4 29.6 64 -7.3 18.9
05:55 1019 30.09 848 25.04 -1.4 29.4 64 -7.4 18.6
06:00 1019 30.09 848 25.04 -1.2 29.9 62 -7.5 18.5
06:05 1019 30.09 848 25.04 -0.8 30.6 61 -7.5 18.5
06:10 1019 30.09 848 25.04 -0.6 30.9 60 -7.5 18.5
06:15 1019 30.09 848 25.04 -0.5 31.1 60 -7.4 18.7
06:20 1019 30.09 848 25.04 -0.7 30.7 60 -7.5 18.6
06:25 1019 30.09 848 25.04 -0.7 30.7 60 -7.6 18.4
06:30 1019 30.09 848 25.04 -0.5 31.1 59 -7.7 18.2
06:35 1019 30.09 848 25.04 -0.1 31.8 57 -7.8 18
06:40 1019 30.09 848 25.04 0.1 32.2 54 -8.1 17.5
06:45 1019 30.09 848 25.04 0.6 33.1 53 -7.9 17.7
06:50 1019 30.09 848 25.04 0.5 33 54 -7.6 18.2
06:55 1019 30.09 848 25.04 0.4 32.7 55 -7.7 18.1
07:00 1019 30.09 848 25.04 0.7 33.3 53 -7.7 18.2
07:05 1019 30.09 848 25.04 1 33.8 52 -7.7 18.2
07:10 1019 30.09 848 25.04 1.4 34.5 52 -7.4 18.7
07:15 1019 30.09 848 25.04 1.8 35.2 50 -7.6 18.3
07:20 1019 30.09 848 25.04 2.1 35.8 49 -7.6 18.2
07:25 1019 30.09 848 25.04 2 35.5 51 -7.1 19.2
07:30 1019 30.09 848 25.04 1.3 34.4 54 -7.1 19.3
07:35 1019 30.09 848 25.04 1 33.8 51 -8 17.6
07:40 1019 30.09 848 25.04 1.6 34.9 49 -8 17.6
07:45 1019 30.09 848 25.04 2.1 35.8 48 -7.8 17.9
07:50 1019 30.09 848 25.04 2.5 36.5 48 -7.5 18.5
07:55 1019 30.09 848 25.04 3 37.4 46 -7.4 18.6
08:00 1019 30.09 848 25.04 3.5 38.3 45 -7.3 18.9
08:05 1018 30.06 848 25.04 3.5 38.3 46 -7.1 19.2
08:10 1018 30.06 848 25.04 3.7 38.6 45 -7.1 19.2
08:15 1019 30.09 848 25.04 4.7 40.5 42 -7.2 19
08:20 1019 30.09 848 25.04 5.2 41.4 41 -7 19.4
08:25 1019 30.09 848 25.04 5.7 42.3 38 -7.3 18.8
08:30 1019 30.09 848 25.04 6.3 43.3 36 -7.6 18.3
08:35 1019 30.09 848 25.04 6.6 43.8 37 -7 19.4
08:40 1019 30.09 848 25.04 7 44.6 38 -6.4 20.5
08:45 1019 30.09 848 25.04 6.5 43.8 37 -7.2 19
08:50 1019 30.09 848 25.04 7.3 45.1 37 -6.3 20.7
08:55 1019 30.09 848 25.04 7.5 45.4 35 -6.9 19.6
09:00 1019 30.09 848 25.04 8 46.4 35 -6.7 19.9
09:05 1019 30.09 848 25.04 8.2 46.7 36 -5.9 21.4
09:10 1019 30.09 848 25.04 8 46.4 38 -5.5 22.1
09:15 1018 30.06 848 25.04 7.2 44.9 39 -5.9 21.3
09:20 1018 30.06 848 25.04 7.9 46.1 37 -6 21.2
09:25 1018 30.06 848 25.04 8.3 47 37 -5.6 21.9
09:30 1018 30.06 848 25.04 8.5 47.3 33 -7 19.4
09:35 1018 30.06 847 25.01 9.1 48.4 32 -6.9 19.6
09:40 1018 30.06 847 25.01 10.1 50.2 29 -7.2 19.1
09:45 1018 30.06 847 25.01 10.7 51.2 26 -7.9 17.8
09:50 1018 30.06 847 25.01 10.8 51.4 25 -8.3 17
09:55 1018 30.06 847 25.01 10.7 51.2 26 -8.3 17.1
10:00 1018 30.06 847 25.01 11 51.8 25 -8.4 17
10:05 1018 30.06 847 25.01 10.8 51.5 25 -8.3 17.1
10:10 1018 30.06 847 25.01 11.6 52.8 25 -7.9 17.9
10:15 1018 30.06 847 25.01 11.9 53.5 25 -7.6 18.4
10:20 1018 30.06 847 25.01 12 53.5 24 -7.9 17.8
10:25 1018 30.06 847 25.01 12.4 54.2 23 -8.1 17.5
10:30 1018 30.06 847 25.01 11.9 53.4 25 -7.6 18.3
10:35 1017 30.03 847 25.01 12.3 54.1 21 -9.7 14.6
10:40 1017 30.03 847 25.01 12.8 55 20 -9.8 14.4
10:45 1017 30.03 846 24.98 12.6 54.6 25 -7 19.4
10:50 1017 30.03 846 24.98 12.1 53.9 25 -7.4 18.7
10:55 1017 30.03 846 24.98 12 53.6 26 -6.6 20.1
11:00 1017 30.03 846 24.98 12.3 54.1 24 -7.7 18.2
11:05 1017 30.03 846 24.98 11.7 53 25 -7.6 18.3
11:10 1017 30.03 846 24.98 12.5 54.5 21 -9 15.8
11:15 1017 30.03 846 24.98 13.7 56.6 20 -9.2 15.5
11:20 1017 30.03 846 24.98 13.8 56.9 19 -9.5 14.9
11:25 1017 30.03 846 24.98 14.2 57.6 15 -12 10.4
11:30 1017 30.03 846 24.98 14.1 57.4 17 -10.9 12.4
11:35 1016 30 846 24.98 13.3 55.9 15 -13.2 8.3
11:40 1016 30 846 24.98 13.3 55.9 15 -12.8 8.9
11:45 1016 30 846 24.98 14 57.1 14 -13.2 8.3
11:50 1016 30 845 24.95 14 57.1 14 -13.5 7.6
11:55 1016 30 845 24.95 14.6 58.3 13 -13.1 8.4
12:00 1016 30 845 24.95 14.7 58.5 13 -13.3 8.1
12:05 1016 30 845 24.95 15.4 59.6 14 -12.3 9.8
12:10 1016 30 845 24.95 14.9 58.9 13 -13.1 8.4
12:15 1016 30 845 24.95 14.9 58.8 18 -9.3 15.2
12:20 1016 30 845 24.95 15 59 13 -12.8 8.9
12:25 1016 30 845 24.95 14.4 57.9 13 -13.7 7.3
12:30 1016 30 845 24.95 14.9 58.7 13 -13.2 8.2
12:35 1015 29.97 845 24.95 15 59 13 -13.5 7.7
12:40 1015 29.97 845 24.95 14.5 58.2 13 -13.4 7.9
12:45 1015 29.97 845 24.95 14.6 58.4 13 -13.7 7.3
12:50 1015 29.97 844 24.92 14.5 58.1 14 -13 8.6
12:55 1015 29.97 844 24.92 15.3 59.6 12 -13.5 7.7
13:00 1015 29.97 844 24.92 15.1 59.1 13 -13.6 7.5
13:05 1015 29.97 844 24.92 15.1 59.1 12 -13.8 7.1
13:10 1015 29.97 844 24.92 14.9 58.9 12 -14.1 6.6
13:15 1015 29.97 844 24.92 15 58.9 13 -13.4 7.9
13:20 1015 29.97 844 24.92 15.7 60.2 12 -13.9 7
13:25 1015 29.97 844 24.92 15 59.1 12 -13.7 7.3
13:30 1015 29.97 844 24.92 14.6 58.3 12 -14 6.7
13:35 1015 29.97 844 24.92 14.8 58.7 12 -13.9 6.9
13:40 1015 29.97 844 24.92 14.9 58.9 12 -13.8 7.2
13:45 1014 29.94 844 24.92 15.2 59.4 12 -13.7 7.3
13:50 1014 29.94 844 24.92 15.1 59.2 13 -13.2 8.2
13:55 1014 29.94 844 24.92 15 59 13 -13.1 8.3
14:00 1014 29.94 843 24.89 15.4 59.6 13 -13.3 8
14:05 1014 29.94 843 24.89 15.4 59.7 13 -12.9 8.8
14:10 1014 29.94 843 24.89 15.5 59.9 13 -12.5 9.5
14:15 1014 29.94 843 24.89 15.3 59.6 14 -12.4 9.7
14:20 1014 29.94 843 24.89 15.5 59.9 14 -12.3 9.9
14:25 1014 29.94 843 24.89 15.4 59.7 14 -11.9 10.7
14:30 1014 29.94 843 24.89 15.5 59.9 14 -12 10.3
14:35 1014 29.94 843 24.89 15 59.1 15 -11.7 11
14:40 1014 29.94 843 24.89 14.8 58.6 15 -11.4 11.5
14:45 1014 29.94 843 24.89 14.4 57.9 15 -12.1 10.3
14:50 1014 29.94 843 24.89 14.4 57.8 15 -11.7 11
14:55 1014 29.94 843 24.89 14.7 58.5 15 -11.4 11.5
15:00 1014 29.94 843 24.89 14.6 58.3 15 -11.8 10.8
15:05 1014 29.94 843 24.89 14.6 58.3 15 -11.5 11.3
15:10 1014 29.94 843 24.89 14.7 58.4 16 -11.3 11.7
15:15 1014 29.94 843 24.89 14.9 58.8 15 -11.3 11.6
15:20 1013 29.91 843 24.89 14.8 58.7 15 -11.4 11.5
15:25 1013 29.91 843 24.89 14.9 58.8 15 -11.7 10.9
15:30 1013 29.91 843 24.89 15 59 14 -12.1 10.2
15:35 1013 29.91 842 24.86 15.3 59.6 15 -11.5 11.3
15:40 1013 29.91 842 24.86 15 59.1 14 -12.2 10
15:45 1013 29.91 842 24.86 14.9 58.8 15 -11.2 11.8
15:50 1013 29.91 842 24.86 14.7 58.5 18 -9.7 14.6
15:55 1013 29.91 842 24.86 14.7 58.5 15 -11.8 10.8
16:00 1013 29.91 842 24.86 14.7 58.4 16 -11 12.1
16:05 1013 29.91 842 24.86 14.5 58.1 16 -10.9 12.5
16:10 1013 29.91 842 24.86 14.4 57.9 15 -11.6 11.2
16:15 1013 29.91 842 24.86 14.4 57.8 17 -10 14
16:20 1013 29.91 842 24.86 14.4 57.9 17 -10.5 13.1
16:25 1013 29.91 842 24.86 14.5 58.1 17 -10 14
16:30 1013 29.91 842 24.86 14.4 58 17 -10.4 13.3
16:35 1013 29.91 842 24.86 14.2 57.6 16 -11.5 11.4
16:40 1013 29.91 842 24.86 14.2 57.6 18 -9.7 14.5
16:45 1013 29.91 842 24.86 14.2 57.5 17 -10.2 13.7
16:50 1013 29.91 842 24.86 14.1 57.4 18 -10.2 13.7
16:55 1013 29.91 842 24.86 13.9 57 19 -9.7 14.6
17:00 1013 29.91 842 24.86 13.6 56.6 19 -9.8 14.4
17:05 1013 29.91 842 24.86 13.5 56.2 19 -9.5 14.9
17:10 1013 29.91 842 24.86 13.3 56 20 -8.9 16
17:15 1013 29.91 842 24.86 13.3 55.9 21 -8.8 16.2
17:20 1013 29.91 842 24.86 13.3 55.9 21 -8.8 16.2
17:25 1013 29.91 842 24.86 13.3 56 19 -9.7 14.5
17:30 1013 29.91 842 24.86 13.4 56 19 -9.6 14.6
17:35 1013 29.91 842 24.86 13.3 56 20 -9.1 15.7
17:40 1013 29.91 842 24.86 13.3 56 19 -9.9 14.2
17:45 1013 29.91 842 24.86 13.3 55.9 21 -8.7 16.4
17:50 1013 29.91 842 24.86 13.1 55.5 20 -9.4 15.1
17:55 1013 29.91 842 24.86 13.1 55.6 19 -9.7 14.5
18:00 1013 29.91 842 24.86 13 55.4 20 -9.6 14.8
18:05 1013 29.91 842 24.86 13 55.5 20 -9.6 14.7
18:10 1013 29.91 842 24.86 12.9 55.3 20 -9.8 14.3
18:15 1013 29.91 842 24.86 12.8 55 20 -10 14.1
18:20 1013 29.91 842 24.86 12.6 54.7 20 -9.6 14.8
18:25 1013 29.91 842 24.86 12.5 54.6 21 -9.2 15.4
18:30 1013 29.91 842 24.86 12.4 54.3 21 -9.4 15
18:35 1013 29.91 842 24.86 12.4 54.3 21 -9.1 15.6
18:40 1013 29.91 842 24.86 12.3 54.2 22 -8.8 16.2
18:45 1013 29.91 843 24.89 12.2 54 22 -9 15.9
18:50 1013 29.91 843 24.89 12.1 53.8 22 -8.7 16.4
18:55 1013 29.91 842 24.86 12 53.7 22 -8.7 16.3
19:00 1013 29.91 843 24.89 12 53.7 23 -8.7 16.3
19:05 1013 29.91 843 24.89 11.9 53.4 23 -8.3 17.1
19:10 1013 29.91 842 24.86 11.9 53.4 23 -8.6 16.5
19:15 1013 29.91 843 24.89 11.9 53.4 24 -8.2 17.2
19:20 1013 29.91 843 24.89 11.8 53.2 25 -7.8 18
19:25 1013 29.91 843 24.89 11.6 52.9 25 -7.8 18
19:30 1014 29.94 843 24.89 11.6 52.8 25 -7.7 18.1
19:35 1014 29.94 843 24.89 11.5 52.7 26 -7.6 18.4
19:40 1014 29.94 843 24.89 11.5 52.6 26 -7.1 19.2
19:45 1014 29.94 843 24.89 11.5 52.7 26 -7.3 18.9
19:50 1014 29.94 843 24.89 11.5 52.6 27 -6.9 19.6
19:55 1014 29.94 843 24.89 11.4 52.5 27 -7 19.4
20:00 1014 29.94 843 24.89 11.4 52.5 26 -7.2 19
20:05 1014 29.94 843 24.89 11.5 52.6 27 -6.9 19.5
20:10 1014 29.94 843 24.89 11.4 52.4 27 -7 19.5
20:15 1014 29.94 843 24.89 11.3 52.3 28 -6.6 20.2
20:20 1014 29.94 843 24.89 11.2 52.1 28 -6.7 20
20:25 1014 29.94 843 24.89 11.2 52.1 28 -6.8 19.8
20:30 1014 29.94 843 24.89 11.1 52 29 -6.4 20.4
20:35 1014 29.94 843 24.89 11 51.7 29 -6.5 20.2
20:40 1014 29.94 843 24.89 11 51.7 29 -6.5 20.2
20:45 1014 29.94 843 24.89 10.8 51.5 30 -6.1 21
20:50 1014 29.94 843 24.89 10.7 51.2 30 -6.1 21
20:55 1014 29.94 843 24.89 10.6 51.1 31 -5.7 21.7
21:00 1014 29.94 843 24.89 10.4 50.8 32 -5.4 22.3
21:05 1014 29.94 843 24.89 10.3 50.5 33 -5.2 22.6
21:10 1014 29.94 843 24.89 10.2 50.3 34 -4.9 23.1
21:15 1014 29.94 843 24.89 10.2 50.3 35 -4.7 23.5
21:20 1014 29.94 843 24.89 10.3 50.5 35 -4.6 23.7
21:25 1014 29.94 843 24.89 10.2 50.3 34 -4.9 23.2
21:30 1014 29.94 843 24.89 10.2 50.4 35 -4.6 23.7
21:35 1014 29.94 843 24.89 10.1 50.2 35 -4.8 23.4
21:40 1014 29.94 843 24.89 10.1 50.1 35 -4.8 23.3
21:45 1014 29.94 843 24.89 10 50 35 -4.7 23.6
21:50 1014 29.94 843 24.89 9.9 49.8 35 -5 23.1
21:55 1014 29.94 843 24.89 10 50 35 -4.8 23.3
22:00 1014 29.94 843 24.89 9.9 49.9 35 -4.9 23.1
22:05 1014 29.94 843 24.89 10 50 35 -4.8 23.3
22:10 1014 29.94 843 24.89 10 50 34 -5 22.9
22:15 1014 29.94 844 24.92 9.9 49.9 35 -4.7 23.5
22:20 1014 29.94 844 24.92 9.8 49.6 36 -4.7 23.5
22:25 1014 29.94 844 24.92 9.7 49.5 36 -4.7 23.5
22:30 1014 29.94 844 24.92 9.7 49.5 36 -4.8 23.4
22:35 1014 29.94 844 24.92 9.7 49.5 36 -4.7 23.5
22:40 1014 29.94 843 24.89 9.7 49.4 36 -4.6 23.6
22:45 1014 29.94 843 24.89 9.6 49.2 37 -4.6 23.8
22:50 1014 29.94 843 24.89 9.4 49 36 -4.8 23.4
22:55 1014 29.94 843 24.89 9.5 49.1 36 -4.7 23.6
23:00 1014 29.94 843 24.89 9.4 48.9 37 -4.5 23.9
23:05 1014 29.94 843 24.89 9.2 48.6 38 -4.2 24.4
23:10 1014 29.94 843 24.89 9.1 48.4 38 -4.4 24.1
23:15 1014 29.94 843 24.89 9.4 49 36 -5 23
23:20 1014 29.94 843 24.89 9.6 49.3 37 -4.2 24.5
23:25 1014 29.94 843 24.89 9.3 48.7 38 -4.2 24.5
23:30 1014 29.94 843 24.89 9.2 48.5 38 -4.3 24.3
23:35 1014 29.94 843 24.89 9.1 48.4 39 -4.1 24.7
23:40 1014 29.94 843 24.89 9.1 48.3 38 -4.5 24
23:45 1014 29.94 843 24.89 9.3 48.7 38 -4.3 24.3
23:50 1014 29.94 843 24.89 9.1 48.4 39 -4.1 24.6
23:55 1014 29.94 843 24.89 9 48.3 39 -4.2 24.4
24:00 1014 29.94 843 24.89 9.1 48.4 39 -4.1 24.7